Aérodrome :
LOGIN :

S'inscrire | Disclaimer

   EN    FR    IT 

 










Légende :    VFR   VFR Marginal   IFR   IFR Intensif   IFR Très Intensif
Visi : 
Plafond : 
>= 8 km
>= 3000ft
5 à 8 km
1000 à 3000 ft
1500m à 5 km
500 à 1000 ft
800 à 1500m
200 à 500 ft
< 800m
< 200 ft
Symboles :   Orages  Brouillard  Fortes neiges  Fortes précipitations  Vent > 20 kt
SIGMETs :   Divers  Orages  Givrage  Turbulence  Onde Orograph.  Cendres Volcan.







- Altitude de l'aérodrome : 3006 ft
- Code IATA : LEN


LELN - Leon

DERNIER METAR :
  • 181500Z 20020KT 170V230 9999 FEW042 SCT050 21/08 Q1013

METARs EXPIRÉS :
  • 181430Z 22017KT 180V250 9999 SCT042 BKN050 20/08 Q1013
  • 181400Z 21018G31KT 180V240 9999 FEW043 SCT050 20/08 Q1014
  • 181330Z 23022KT 200V270 9999 FEW050 20/08 Q1013
  • 181230Z 21018G28KT 160V250 9999 SCT050 22/06 Q1013

TAF TAF LELN
Valide du 18 à 15h jusqu'au 19 à 00h UTC


181400Z 1815/1824 23018KT 9999 SCT050
TEMPO 1815/1818 22018G30KT
TEMPO 1818/1821 22015G25KT
PROB30
TEMPO 1815/1821 RA BKN020
BECMG 1822/1824 23008KT
Pas de NOTAMs connus pour ce terrain.



MET'MAP, la Météo Aéronautique d'un coup d'oeil ! - Copyright ORBIFLY Décembre 2007 - Disclaimer

ORBIFLY MET'MAP TEAM :

Programmation & Développement : Alexandra Zaïnal
Conception & Développement : Baudouin d'Aumeries
Co-Programmation & Développement : Marc-Olivier Méhu
Soutien technique & logistique : Manuel Goepfert

Contact : metmap@orbifly.com




SOURCES & CREDITS :

   NOAA